Time;durP1;ratioP1;P1;durP2;ratioP2;P2;SDS_P1;SDS_P2;PMS_P1;PMS_P2;Temp;Humidity;BMP_temperature;BMP_pressure;BME280_temperature;BME280_humidity;BME280_pressure;Samples;Min_cycle;Max_cycle;Signal;HPM_P1;HPM_P2
2023/02/27 00:01:38;;;;;;;10.17;4.87;;;;;;;3.99;90.15;100373.34;122916;1106;104271;-80
2023/02/27 00:04:10;;;;;;;10.00;5.17;;;;;;;3.96;90.10;100372.37;122885;1109;104315;-80
2023/02/27 00:06:41;;;;;;;10.23;4.80;;;;;;;3.98;90.39;100379.37;122937;1107;104379;-80
2023/02/27 00:09:12;;;;;;;10.43;5.10;;;;;;;3.95;90.32;100375.76;122842;1106;104350;-80
2023/02/27 00:11:44;;;;;;;10.03;5.30;;;;;;;3.95;90.41;100375.76;122898;1109;104277;-81
2023/02/27 00:14:15;;;;;;;10.00;5.00;;;;;;;3.95;90.39;100374.88;122929;1108;104331;-80
2023/02/27 00:16:46;;;;;;;11.80;5.37;;;;;;;3.92;90.55;100369.50;122958;1105;104204;-80
2023/02/27 00:19:17;;;;;;;10.20;5.50;;;;;;;3.92;90.00;100364.30;123006;1105;104293;-80
2023/02/27 00:21:49;;;;;;;12.13;5.60;;;;;;;3.93;91.10;100351.42;122899;1105;104283;-80
2023/02/27 00:24:21;;;;;;;12.03;5.33;;;;;;;3.92;91.48;100357.41;122924;1105;104402;-80
2023/02/27 00:26:52;;;;;;;11.00;5.30;;;;;;;3.93;90.20;100360.92;123110;1106;104293;-81
2023/02/27 00:29:23;;;;;;;10.67;5.10;;;;;;;3.92;90.22;100364.30;122957;1108;104316;-81
2023/02/27 00:31:56;;;;;;;8.43;5.00;;;;;;;3.93;90.28;100360.92;123026;1105;104377;-81
2023/02/27 00:34:29;;;;;;;9.20;5.10;;;;;;;3.94;90.84;100363.61;122960;1105;104338;-81
2023/02/27 00:37:00;;;;;;;12.10;5.30;;;;;;;3.93;91.81;100367.00;122887;1106;104392;-80
2023/02/27 00:39:31;;;;;;;11.10;5.50;;;;;;;3.98;90.81;100371.58;122926;1109;104737;-81
2023/02/27 00:42:02;;;;;;;9.10;4.50;;;;;;;4.00;91.30;100363.05;123064;1109;104195;-81
2023/02/27 00:44:34;;;;;;;13.03;5.10;;;;;;;3.99;91.38;100357.77;123063;1105;104249;-80
2023/02/27 00:47:05;;;;;;;12.87;5.37;;;;;;;3.96;91.37;100359.39;122967;1105;105901;-80
2023/02/27 00:49:37;;;;;;;8.73;4.97;;;;;;;3.94;91.01;100358.41;123000;1109;104382;-80
2023/02/27 00:52:08;;;;;;;10.60;5.23;;;;;;;3.93;91.60;100369.59;122867;1105;104274;-80
2023/02/27 00:54:39;;;;;;;9.57;5.30;;;;;;;3.92;91.73;100367.79;122891;1105;104262;-82
2023/02/27 00:57:10;;;;;;;8.77;4.97;;;;;;;3.91;92.22;100376.41;122993;1106;104405;-80
2023/02/27 00:59:42;;;;;;;12.13;6.03;;;;;;;3.90;91.53;100373.71;122857;1105;104299;-79
2023/02/27 01:02:15;;;;;;;11.67;4.83;;;;;;;3.91;91.92;100384.19;122938;1106;104268;-79
2023/02/27 01:04:46;;;;;;;8.33;4.70;;;;;;;3.90;92.51;100378.91;122914;1105;104383;-80
2023/02/27 01:07:18;;;;;;;9.27;5.07;;;;;;;3.89;92.28;100375.39;122987;1105;104405;-80
2023/02/27 01:09:49;;;;;;;8.57;4.90;;;;;;;3.87;92.83;100378.72;122955;1105;104409;-80
2023/02/27 01:12:20;;;;;;;9.65;5.05;;;;;;;3.87;92.27;100379.61;122974;1106;104406;-80
2023/02/27 01:14:52;;;;;;;12.67;5.10;;;;;;;3.88;92.59;100380.48;123021;1105;104370;-80
2023/02/27 01:17:23;;;;;;;9.10;4.67;;;;;;;3.86;93.39;100371.72;122917;1105;104326;-80
2023/02/27 01:19:55;;;;;;;9.60;5.03;;;;;;;3.82;92.53;100373.25;122970;1106;104287;-80
2023/02/27 01:22:28;;;;;;;7.73;5.13;;;;;;;3.82;93.12;100372.33;123002;1106;104370;-81
2023/02/27 01:24:59;;;;;;;8.60;4.97;;;;;;;3.84;92.84;100375.94;122947;1106;104370;-80
2023/02/27 01:27:30;;;;;;;8.73;4.63;;;;;;;3.81;93.28;100374.05;122914;1105;104383;-80
2023/02/27 01:30:02;;;;;;;7.27;4.43;;;;;;;3.81;93.48;100379.23;122846;1105;110869;-80
2023/02/27 01:32:34;;;;;;;8.23;4.53;;;;;;;3.82;94.17;100374.92;122974;1106;104243;-80
2023/02/27 01:35:06;;;;;;;7.17;4.37;;;;;;;3.80;93.08;100372.23;122909;1106;104479;-80
2023/02/27 01:37:38;;;;;;;7.30;4.47;;;;;;;3.80;95.10;100380.02;123093;1105;104824;-79
2023/02/27 01:40:13;;;;;;;9.13;4.77;;;;;;;3.78;94.38;100371.26;122942;1109;104666;-80
2023/02/27 01:42:45;;;;;;;7.93;4.90;;;;;;;3.78;92.73;100377.34;122980;1106;104274;-81
2023/02/27 01:45:30;;;;;;;9.45;4.80;;;;;;;3.80;92.39;100387.81;123024;1105;104294;-81
2023/02/27 01:48:15;;;;;;;8.43;5.03;;;;;;;3.81;93.78;100387.02;123193;1105;104335;-81
2023/02/27 01:50:52;;;;;;;9.40;4.70;;;;;;;3.82;93.40;100394.02;123106;1105;104732;-81
2023/02/27 01:53:26;;;;;;;8.00;5.00;;;;;;;3.83;92.54;100388.00;123052;1105;104361;-82
2023/02/27 01:56:02;;;;;;;10.00;5.20;;;;;;;3.86;92.05;100401.16;123099;1106;104281;-81
2023/02/27 01:58:34;;;;;;;9.43;4.93;;;;;;;3.89;92.20;100400.47;123175;1105;104438;-81
2023/02/27 02:01:09;;;;;;;9.03;4.50;;;;;;;3.88;93.79;100393.47;123087;1105;104354;-80
2023/02/27 02:03:48;;;;;;;8.03;4.60;;;;;;;3.86;93.97;100380.39;123097;1106;104392;-80
2023/02/27 02:06:21;;;;;;;10.30;4.70;;;;;;;3.85;94.13;100383.82;123101;1109;104251;-81
2023/02/27 02:08:55;;;;;;;7.80;4.83;;;;;;;3.84;93.46;100375.94;123092;1109;104294;-81
2023/02/27 02:11:28;;;;;;;9.63;4.90;;;;;;;3.84;93.73;100375.94;123072;1109;104405;-81
2023/02/27 02:14:01;;;;;;;9.93;5.07;;;;;;;3.82;94.08;100373.25;123174;1106;104192;-81
2023/02/27 02:16:54;;;;;;;9.80;5.00;;;;;;;3.82;93.74;100378.44;123188;1108;104300;-81
2023/02/27 02:19:53;;;;;;;9.10;4.70;;;;;;;3.82;93.73;100374.92;123165;1106;105700;-82
2023/02/27 02:23:06;;;;;;;8.50;4.70;;;;;;;3.73;94.24;100362.30;123056;1105;104383;-81
2023/02/27 02:26:18;;;;;;;9.20;4.83;;;;;;;3.81;94.40;100386.13;123158;1109;104459;-81
2023/02/27 02:29:21;;;;;;;10.27;4.73;;;;;;;3.80;92.93;100380.02;123119;1109;104756;-81
2023/02/27 02:32:21;;;;;;;10.77;4.87;;;;;;;3.81;93.36;100400.00;123035;1109;104274;-81
2023/02/27 02:35:16;;;;;;;9.03;4.90;;;;;;;3.81;92.83;100423.36;123019;1109;104593;-81
2023/02/27 02:38:18;;;;;;;9.33;4.67;;;;;;;3.83;93.23;100408.77;123066;1109;104226;-81
2023/02/27 02:40:53;;;;;;;10.80;4.93;;;;;;;3.85;92.49;100417.56;123020;1105;104369;-82
2023/02/27 02:43:31;;;;;;;9.20;4.70;;;;;;;3.86;92.52;100408.95;123140;1105;104300;-82
2023/02/27 02:46:08;;;;;;;6.77;4.40;;;;;;;3.88;93.28;100411.64;123006;1108;104415;-81
2023/02/27 02:48:47;;;;;;;8.63;5.03;;;;;;;3.88;93.47;100417.75;123137;1105;104261;-81
2023/02/27 02:51:25;;;;;;;10.70;4.70;;;;;;;3.87;92.35;100420.25;123007;1105;104254;-82
2023/02/27 02:54:02;;;;;;;7.23;4.47;;;;;;;3.88;92.92;100427.22;123101;1109;104348;-81
2023/02/27 02:56:44;;;;;;;8.47;4.50;;;;;;;3.87;93.04;100423.73;123035;1105;104326;-82
2023/02/27 02:59:18;;;;;;;8.23;4.67;;;;;;;3.88;93.16;100422.02;123064;1105;104303;-81
2023/02/27 03:01:56;;;;;;;7.53;4.70;;;;;;;3.87;92.91;100418.55;123091;1109;104395;-82
2023/02/27 03:04:34;;;;;;;6.70;4.33;;;;;;;3.89;92.84;100426.42;122970;1108;104329;-81
2023/02/27 03:07:11;;;;;;;8.87;4.17;;;;;;;3.91;93.02;100440.39;123050;1109;104920;-81
2023/02/27 03:09:48;;;;;;;6.90;4.10;;;;;;;3.89;93.37;100423.83;122982;1105;104316;-81
2023/02/27 03:12:23;;;;;;;7.23;4.50;;;;;;;3.87;93.85;100404.67;122939;1106;104373;-81
2023/02/27 03:14:59;;;;;;;7.60;4.70;;;;;;;3.85;94.44;100417.56;123012;1105;104262;-80
2023/02/27 03:17:39;;;;;;;8.37;4.33;;;;;;;3.83;93.92;100421.74;123145;1105;104389;-81
2023/02/27 03:20:16;;;;;;;9.83;4.93;;;;;;;3.83;93.66;100413.06;123061;1109;104403;-82
2023/02/27 03:22:50;;;;;;;7.40;4.60;;;;;;;3.85;92.77;100435.73;123309;1109;104708;-82
2023/02/27 03:25:22;;;;;;;8.20;4.60;;;;;;;3.86;93.22;100432.31;123067;1105;104287;-82
2023/02/27 03:28:01;;;;;;;8.45;4.92;;;;;;;3.87;93.15;100436.72;123162;1106;104297;-82
2023/02/27 03:30:37;;;;;;;11.17;6.00;;;;;;;3.85;92.75;100440.92;123150;1105;104679;-81
2023/02/27 03:33:12;;;;;;;11.83;6.67;;;;;;;3.81;92.84;100420.77;123028;1105;104251;-82
2023/02/27 03:35:50;;;;;;;14.27;6.87;;;;;;;3.81;92.97;100425.95;123075;1109;104384;-81
2023/02/27 03:38:30;;;;;;;14.37;6.03;;;;;;;3.83;92.55;100439.91;122984;1109;104169;-82
2023/02/27 03:41:10;;;;;;;10.30;5.50;;;;;;;3.86;92.89;100458.27;123049;1108;104300;-82
2023/02/27 03:43:52;;;;;;;13.17;6.70;;;;;;;3.87;92.59;100452.29;123015;1109;104270;-82
2023/02/27 03:46:26;;;;;;;15.87;7.20;;;;;;;3.85;92.73;100447.80;123092;1109;104508;-82
2023/02/27 03:48:58;;;;;;;15.27;7.27;;;;;;;3.82;92.32;100445.93;123101;1109;104675;-82
2023/02/27 03:51:30;;;;;;;17.00;7.77;;;;;;;3.83;92.80;100442.51;123191;1109;104223;-83
2023/02/27 03:54:09;;;;;;;16.57;7.83;;;;;;;3.80;92.45;100441.44;123138;1109;104210;-83
2023/02/27 03:56:45;;;;;;;19.27;8.07;;;;;;;3.80;92.78;100451.81;123057;1107;104287;-82
2023/02/27 03:59:17;;;;;;;19.37;7.50;;;;;;;3.80;92.78;100452.70;123246;1109;104312;-82
2023/02/27 04:01:52;;;;;;;13.13;6.57;;;;;;;3.75;92.55;100444.63;123385;1105;104393;-82
2023/02/27 04:04:24;;;;;;;16.37;7.57;;;;;;;3.77;92.04;100453.43;123402;1108;104405;-82
2023/02/27 04:07:23;;;;;;;18.50;7.97;;;;;;;3.78;93.15;100441.34;123305;1106;104239;-82
2023/02/27 04:10:25;;;;;;;18.17;7.97;;;;;;;3.80;92.52;100429.34;123462;1105;104297;-82
2023/02/27 04:13:14;;;;;;;17.50;6.73;;;;;;;3.83;93.01;100429.53;123183;1109;104242;-82
2023/02/27 04:16:06;;;;;;;17.13;7.67;;;;;;;3.85;92.58;100430.55;123294;1109;104358;-83
2023/02/27 04:18:55;;;;;;;19.03;7.77;;;;;;;3.88;92.73;100435.92;123328;1105;104309;-83
2023/02/27 04:21:35;;;;;;;11.57;5.37;;;;;;;3.87;92.72;100431.52;123284;1109;104287;-83
2023/02/27 04:24:15;;;;;;;13.95;6.55;;;;;;;3.89;92.99;100435.09;123300;1109;104224;-82
2023/02/27 04:26:51;;;;;;;14.57;6.07;;;;;;;3.91;92.94;100440.39;123213;1109;104419;-83
2023/02/27 04:29:34;;;;;;;13.07;6.60;;;;;;;3.92;92.26;100449.98;123295;1105;104654;-83
2023/02/27 04:32:13;;;;;;;15.17;7.67;;;;;;;3.94;92.18;100458.75;123161;1105;104348;-82
2023/02/27 04:34:49;;;;;;;18.23;8.90;;;;;;;3.94;92.84;100464.86;123131;1109;104408;-82
2023/02/27 04:37:26;;;;;;;18.57;9.57;;;;;;;3.93;92.82;100455.27;123286;1109;104248;-83
2023/02/27 04:40:00;;;;;;;16.03;7.90;;;;;;;3.92;92.15;100458.66;123254;1105;104230;-83
2023/02/27 04:42:35;;;;;;;17.33;8.53;;;;;;;3.91;92.15;100464.67;123254;1109;104316;-83
2023/02/27 04:45:12;;;;;;;14.33;7.23;;;;;;;3.89;92.59;100466.25;123252;1105;104709;-83
2023/02/27 04:47:50;;;;;;;11.70;6.47;;;;;;;3.88;92.62;100461.88;123309;1109;104249;-83
2023/02/27 04:50:26;;;;;;;10.63;5.60;;;;;;;3.87;92.86;100457.48;123243;1109;104267;-82
2023/02/27 04:53:03;;;;;;;11.03;5.10;;;;;;;3.83;92.50;100452.89;123308;1105;104265;-83
2023/02/27 04:55:41;;;;;;;9.77;5.50;;;;;;;3.83;92.81;100467.58;123320;1109;104358;-83
2023/02/27 04:58:15;;;;;;;10.90;5.20;;;;;;;3.83;92.77;100473.66;123428;1105;104290;-80
2023/02/27 05:00:53;;;;;;;11.60;5.60;;;;;;;3.84;92.05;100457.30;123277;1109;104334;-82
2023/02/27 05:03:28;;;;;;;10.53;5.30;;;;;;;3.85;92.55;100456.50;123160;1105;104358;-82
2023/02/27 05:06:02;;;;;;;10.83;5.60;;;;;;;3.85;93.13;100472.08;123290;1109;104268;-83
2023/02/27 05:08:39;;;;;;;14.93;6.15;;;;;;;3.84;92.51;100480.66;123267;1108;104240;-82
2023/02/27 05:11:15;;;;;;;9.23;5.17;;;;;;;3.82;92.58;100486.54;123308;1108;104476;-83
2023/02/27 05:13:51;;;;;;;8.23;5.00;;;;;;;3.81;92.60;100490.84;123306;1105;104220;-82
2023/02/27 05:16:31;;;;;;;10.10;4.90;;;;;;;3.83;93.07;100501.33;123210;1105;104351;-82
2023/02/27 05:19:03;;;;;;;7.90;4.60;;;;;;;3.82;93.59;100497.84;123298;1106;104245;-82
2023/02/27 05:21:41;;;;;;;9.30;4.87;;;;;;;3.85;93.40;100517.88;123620;1105;104399;-81
2023/02/27 05:24:24;;;;;;;8.70;4.60;;;;;;;3.88;93.12;100520.67;123898;1105;104370;-86
2023/02/27 05:27:17;;;;;;;9.30;4.95;;;;;;;3.86;93.37;100525.77;123732;1105;104434;-82
2023/02/27 05:29:50;;;;;;;9.55;4.90;;;;;;;3.85;93.30;100542.16;124333;1106;104406;-83
2023/02/27 05:32:29;;;;;;;10.78;5.12;;;;;;;3.82;93.41;100534.19;123976;1106;104245;-82
2023/02/27 05:35:09;;;;;;;10.63;5.33;;;;;;;3.84;92.61;100542.95;124533;1105;119308;-82
2023/02/27 05:37:45;;;;;;;11.67;5.43;;;;;;;3.88;92.82;100546.63;124944;1109;104127;-79
2023/02/27 05:40:19;;;;;;;16.23;6.03;;;;;;;3.89;92.83;100551.92;124234;1105;104297;-81
2023/02/27 05:42:56;;;;;;;14.25;6.33;;;;;;;3.92;92.51;100540.84;124702;1106;102247;-81
2023/02/27 05:45:33;;;;;;;15.93;7.67;;;;;;;3.98;93.19;100555.92;124139;1105;104274;-81
2023/02/27 05:48:09;;;;;;;12.00;5.40;;;;;;;3.98;93.72;100554.21;123651;1108;104482;-81
2023/02/27 05:50:41;;;;;;;12.87;6.03;;;;;;;3.96;92.89;100564.50;124014;1109;104392;-81
2023/02/27 05:53:18;;;;;;;12.73;6.10;;;;;;;3.98;93.28;100559.41;123784;1109;104429;-81
2023/02/27 05:55:52;;;;;;;12.47;5.67;;;;;;;4.00;93.82;100565.58;123962;1109;104363;-82
2023/02/27 05:58:28;;;;;;;12.07;5.90;;;;;;;4.02;93.62;100563.08;123950;1109;104306;-82
2023/02/27 06:01:02;;;;;;;12.93;6.07;;;;;;;4.05;93.42;100566.79;123920;1106;104348;-82
2023/02/27 06:03:36;;;;;;;12.87;5.63;;;;;;;4.06;94.82;100575.47;123591;1109;104377;-83
2023/02/27 06:06:12;;;;;;;13.90;5.67;;;;;;;4.04;93.96;100575.38;123805;1105;104345;-78
2023/02/27 06:08:43;;;;;;;12.30;5.87;;;;;;;4.05;94.00;100558.08;123626;1109;104313;-78
2023/02/27 06:11:14;;;;;;;15.00;6.63;;;;;;;4.07;93.03;100564.29;123822;1109;104293;-79
2023/02/27 06:13:46;;;;;;;17.60;7.27;;;;;;;4.11;94.11;100563.66;123994;1108;104329;-79
2023/02/27 06:16:17;;;;;;;18.27;7.70;;;;;;;4.10;93.50;100562.77;123725;1106;104345;-78
2023/02/27 06:18:49;;;;;;;14.03;6.63;;;;;;;4.11;93.97;100546.41;123719;1105;104217;-78
2023/02/27 06:21:20;;;;;;;16.87;7.90;;;;;;;4.14;93.81;100543.08;123597;1105;104369;-80
2023/02/27 06:23:51;;;;;;;16.77;7.27;;;;;;;4.14;94.20;100556.98;123803;1109;103000;-78
2023/02/27 06:26:23;;;;;;;14.57;6.80;;;;;;;4.14;94.14;100566.45;123885;1109;104265;-79
2023/02/27 06:28:54;;;;;;;12.73;6.10;;;;;;;4.12;94.47;100552.48;123751;1109;104556;-78
2023/02/27 06:31:26;;;;;;;9.07;5.20;;;;;;;4.09;94.34;100555.77;123922;1109;103609;-79
2023/02/27 06:33:57;;;;;;;19.07;7.20;;;;;;;4.06;94.67;100549.50;123921;1108;104262;-78
2023/02/27 06:36:29;;;;;;;12.13;5.77;;;;;;;4.06;94.22;100565.97;124110;1106;103330;-79
2023/02/27 06:39:03;;;;;;;12.60;6.00;;;;;;;4.07;93.76;100572.08;124207;1105;104355;-77
2023/02/27 06:41:35;;;;;;;12.33;5.73;;;;;;;4.08;94.21;100577.38;123810;1105;104227;-76
2023/02/27 06:47:54;;;;;;;11.37;5.77;;;;;;;4.10;94.52;100580.95;124514;1105;113079;-79
2023/02/27 06:50:26;;;;;;;13.97;6.17;;;;;;;4.09;93.50;100586.05;125247;1109;104265;-80
2023/02/27 06:52:58;;;;;;;11.83;6.10;;;;;;;4.08;94.33;100590.36;124098;1108;104319;-78
2023/02/27 06:55:33;;;;;;;11.95;6.35;;;;;;;4.09;95.07;100586.94;124287;1109;104364;-78
2023/02/27 06:58:05;;;;;;;17.00;6.57;;;;;;;4.10;94.56;100587.86;124515;1108;103121;-80
2023/02/27 07:00:37;;;;;;;11.97;6.13;;;;;;;4.10;94.38;100582.66;124261;1106;104262;-79
2023/02/27 07:03:10;;;;;;;13.00;6.57;;;;;;;4.09;94.34;100580.86;124303;1108;102268;-79
2023/02/27 07:05:42;;;;;;;14.80;6.80;;;;;;;4.09;95.02;100588.64;124186;1108;104220;-80
2023/02/27 07:08:16;;;;;;;16.47;6.90;;;;;;;4.09;94.09;100586.94;124670;1109;102437;-81
2023/02/27 07:10:48;;;;;;;15.32;6.60;;;;;;;4.14;94.42;100600.21;124317;1109;104293;-79
2023/02/27 07:13:20;;;;;;;14.00;6.00;;;;;;;4.17;94.40;100615.10;124570;1109;102557;-79
2023/02/27 07:15:58;;;;;;;13.80;6.50;;;;;;;4.17;95.01;100609.91;124051;1109;103182;-79
2023/02/27 07:18:30;;;;;;;15.43;6.77;;;;;;;4.17;94.22;100602.11;124571;1108;102850;-80
2023/02/27 07:21:02;;;;;;;15.43;7.30;;;;;;;4.21;94.95;100598.92;124973;1109;102564;-81
2023/02/27 07:23:37;;;;;;;11.17;5.50;;;;;;;4.19;94.63;100603.09;124232;1105;102573;-81
2023/02/27 07:26:11;;;;;;;15.60;6.80;;;;;;;4.16;94.11;100603.83;124076;1109;103069;-80
2023/02/27 07:28:50;;;;;;;16.00;6.77;;;;;;;4.16;95.19;100609.02;124289;1109;104274;-79
2023/02/27 07:31:29;;;;;;;21.53;8.07;;;;;;;4.13;95.20;100606.23;124102;1109;102213;-79
2023/02/27 07:34:03;;;;;;;18.33;7.87;;;;;;;4.12;94.49;100601.83;125031;1108;103552;-80
2023/02/27 07:36:36;;;;;;;14.35;6.15;;;;;;;4.06;95.79;100598.84;124083;1109;104300;-77
2023/02/27 07:39:10;;;;;;;12.90;6.60;;;;;;;4.06;95.75;100601.44;124052;1105;104265;-79
2023/02/27 07:41:41;;;;;;;;;;;;;;;4.08;96.10;100600.74;125717;1109;102030;-80
2023/02/27 07:44:15;;;;;;;14.83;6.37;;;;;;;4.08;96.39;100599.83;124083;1109;104195;-79
2023/02/27 07:46:46;;;;;;;12.47;6.63;;;;;;;4.10;95.00;100593.94;123913;1109;103611;-80
2023/02/27 07:49:18;;;;;;;13.07;5.97;;;;;;;4.14;96.15;100584.62;124171;1108;102190;-78
2023/02/27 07:51:51;;;;;;;14.83;6.53;;;;;;;4.14;94.79;100574.23;124100;1106;103407;-81
2023/02/27 07:54:23;;;;;;;17.15;6.80;;;;;;;4.15;95.50;100586.44;124163;1109;102824;-80
2023/02/27 07:56:57;;;;;;;15.50;6.70;;;;;;;4.18;95.18;100596.13;124226;1109;104265;-80
2023/02/27 07:59:28;;;;;;;16.97;7.20;;;;;;;4.22;94.58;100609.38;124163;1109;104399;-80
2023/02/27 08:02:04;;;;;;;15.27;7.47;;;;;;;4.29;94.37;100619.36;124340;1109;104216;-80
2023/02/27 08:04:36;;;;;;;13.47;6.80;;;;;;;4.32;94.32;100629.06;124875;1106;102976;-80
2023/02/27 08:07:12;;;;;;;17.67;7.53;;;;;;;4.29;94.22;100627.16;124136;1109;104333;-81
2023/02/27 08:09:46;;;;;;;15.67;8.00;;;;;;;4.28;94.42;100620.16;124266;1109;104376;-79
2023/02/27 08:12:21;;;;;;;16.00;7.43;;;;;;;4.22;94.99;100611.09;124399;1109;103162;-81
2023/02/27 08:14:55;;;;;;;19.53;8.13;;;;;;;4.21;95.71;100612.80;124171;1109;104358;-79
2023/02/27 08:17:27;;;;;;;20.50;8.05;;;;;;;4.25;94.75;100613.87;123986;1108;102660;-79
2023/02/27 08:19:58;;;;;;;18.73;8.27;;;;;;;4.27;95.84;100620.97;123993;1108;104233;-78
2023/02/27 08:22:33;;;;;;;18.37;7.70;;;;;;;4.24;96.29;100623.37;123752;1109;104374;-78
2023/02/27 08:25:06;;;;;;;16.60;8.60;;;;;;;4.19;95.91;100624.80;123950;1108;104208;-78
2023/02/27 08:27:40;;;;;;;18.43;7.43;;;;;;;4.13;97.23;100621.81;124016;1106;104856;-81
2023/02/27 08:30:17;;;;;;;16.97;7.83;;;;;;;4.08;97.29;100625.80;124009;1109;102990;-79
2023/02/27 08:32:46;;;;;;;;;;;;;;;4.04;97.24;100623.83;124248;1106;104239;-79
2023/02/27 08:35:20;;;;;;;14.90;6.90;;;;;;;4.02;96.88;100628.92;125086;1109;103388;-79
2023/02/27 08:37:52;;;;;;;18.52;8.48;;;;;;;4.00;97.79;100619.22;124195;1108;104195;-78
2023/02/27 08:40:28;;;;;;;16.60;7.90;;;;;;;3.97;96.80;100612.12;124179;1109;104400;-78
2023/02/27 08:43:18;;;;;;;20.03;8.70;;;;;;;4.00;97.45;100611.43;124174;1109;103506;-79
2023/02/27 08:46:00;;;;;;;17.40;8.13;;;;;;;4.05;97.20;100604.83;124092;1109;104303;-79
2023/02/27 08:48:34;;;;;;;20.20;9.27;;;;;;;4.08;96.61;100599.83;124029;1108;104246;-80
2023/02/27 08:51:04;;;;;;;;;;;;;;;4.11;97.33;100595.75;124855;1109;104223;-79
2023/02/27 08:53:42;;;;;;;21.00;8.47;;;;;;;4.19;96.28;100616.09;125562;1109;101981;-79
2023/02/27 08:56:19;;;;;;;20.10;8.77;;;;;;;4.20;96.35;100608.39;125554;1108;102657;-79
2023/02/27 08:59:09;;;;;;;19.87;9.23;;;;;;;4.25;96.52;100604.38;125463;1108;102786;-79
2023/02/27 09:01:50;;;;;;;19.93;9.07;;;;;;;4.32;96.50;100616.06;125385;1109;117906;-78
2023/02/27 09:04:27;;;;;;;22.37;11.20;;;;;;;4.34;96.13;100610.97;125471;1108;102788;-78
2023/02/27 09:07:04;;;;;;;20.87;10.33;;;;;;;4.39;96.21;100599.16;125603;1108;102298;-81
2023/02/27 09:09:36;;;;;;;21.73;10.33;;;;;;;4.37;96.60;100579.98;125301;1108;102385;-78
2023/02/27 09:12:10;;;;;;;;;;;;;;;4.40;95.83;100573.27;124214;1105;102421;-79
2023/02/27 09:14:45;;;;;;;22.30;10.60;;;;;;;4.50;96.52;100585.11;124972;1105;104299;-79
2023/02/27 09:17:17;;;;;;;22.05;10.70;;;;;;;4.59;96.02;100593.47;124079;1106;104271;-78
2023/02/27 09:19:50;;;;;;;22.23;11.10;;;;;;;4.59;95.39;100585.67;124021;1109;102380;-79
2023/02/27 09:22:24;;;;;;;23.67;11.27;;;;;;;4.61;95.49;100599.69;123956;1105;112188;-78
2023/02/27 09:24:56;;;;;;;19.63;9.70;;;;;;;4.70;95.36;100604.52;123891;1105;104275;-79
2023/02/27 09:27:27;;;;;;;23.83;10.60;;;;;;;4.76;95.15;100611.81;123957;1106;104240;-79
2023/02/27 09:30:00;;;;;;;18.60;8.90;;;;;;;4.67;94.76;100600.06;123986;1109;104236;-78
2023/02/27 09:32:33;;;;;;;20.10;9.00;;;;;;;4.66;95.16;100602.56;124071;1109;104290;-76
2023/02/27 09:35:08;;;;;;;19.07;8.27;;;;;;;4.66;94.94;100611.25;124131;1108;104273;-77
2023/02/27 09:37:40;;;;;;;20.00;8.93;;;;;;;4.71;95.41;100602.84;125598;1106;102585;-79
2023/02/27 09:40:24;;;;;;;20.73;9.00;;;;;;;4.74;94.85;100606.52;125488;1109;104479;-80
2023/02/27 09:43:04;;;;;;;19.73;9.17;;;;;;;4.77;94.59;100617.10;124988;1108;109160;-77
2023/02/27 09:45:38;;;;;;;20.50;9.03;;;;;;;4.80;94.20;100603.37;123933;1105;104197;-80
2023/02/27 09:48:18;;;;;;;22.00;10.30;;;;;;;4.83;95.10;100613.95;124171;1109;104201;-79
2023/02/27 09:50:53;;;;;;;22.20;10.35;;;;;;;4.87;95.15;100605.55;124070;1106;104312;-78
2023/02/27 09:53:30;;;;;;;21.70;10.00;;;;;;;4.87;94.74;100597.75;124032;1105;119916;-78
2023/02/27 09:56:07;;;;;;;21.17;10.27;;;;;;;4.83;94.04;100604.48;123968;1109;103058;-77
2023/02/27 09:58:56;;;;;;;23.47;10.13;;;;;;;4.81;94.49;100618.17;124214;1105;104223;-82
2023/02/27 10:01:37;;;;;;;21.20;10.23;;;;;;;4.84;94.12;100623.56;125072;1105;102413;-80
2023/02/27 10:04:36;;;;;;;21.57;10.83;;;;;;;4.75;93.91;100623.89;124310;1106;102930;-78
2023/02/27 10:07:16;;;;;;;21.83;10.43;;;;;;;4.75;94.29;100623.89;124799;1109;102510;-76
2023/02/27 10:10:01;;;;;;;24.80;11.67;;;;;;;4.78;94.60;100633.59;124124;1105;104357;-78
2023/02/27 10:12:51;;;;;;;21.37;9.80;;;;;;;4.80;94.43;100639.77;124062;1105;104271;-79
2023/02/27 10:15:29;;;;;;;25.60;9.97;;;;;;;4.78;94.50;100644.88;124246;1109;104227;-79
2023/02/27 10:18:05;;;;;;;17.93;8.23;;;;;;;4.77;94.45;100658.70;124170;1108;103017;-75
2023/02/27 10:20:43;;;;;;;20.27;8.53;;;;;;;4.67;93.78;100667.64;124080;1109;104243;-77
2023/02/27 10:23:18;;;;;;;20.60;9.03;;;;;;;4.63;94.25;100676.04;124255;1105;104297;-77
2023/02/27 10:25:52;;;;;;;19.90;9.20;;;;;;;4.52;94.37;100665.77;124077;1109;104287;-78
2023/02/27 10:28:29;;;;;;;21.50;9.93;;;;;;;4.61;94.64;100692.33;124384;1109;104218;-79
2023/02/27 10:31:02;;;;;;;21.53;10.00;;;;;;;4.61;94.37;100702.73;124217;1109;104185;-78
2023/02/27 10:33:41;;;;;;;20.17;9.73;;;;;;;4.64;94.21;100709.04;124225;1105;104239;-79
2023/02/27 10:36:17;;;;;;;19.50;9.27;;;;;;;4.66;94.33;100714.34;124185;1106;104788;-79
2023/02/27 10:38:55;;;;;;;20.80;9.50;;;;;;;4.68;94.61;100717.92;124447;1109;103707;-81
2023/02/27 10:41:27;;;;;;;23.37;11.20;;;;;;;4.67;94.80;100716.11;125223;1109;102440;-80
2023/02/27 10:44:01;;;;;;;22.67;9.20;;;;;;;4.67;95.20;100705.71;124431;1106;102711;-80
2023/02/27 10:46:40;;;;;;;24.30;12.70;;;;;;;4.67;94.93;100701.44;125109;1106;104211;-79
2023/02/27 10:49:17;;;;;;;24.77;11.80;;;;;;;4.64;94.87;100697.72;124349;1106;104185;-78
2023/02/27 10:52:07;;;;;;;22.87;10.67;;;;;;;4.61;94.95;100688.05;124271;1109;103910;-79
2023/02/27 10:54:46;;;;;;;20.67;9.23;;;;;;;4.60;95.82;100678.45;124078;1108;113247;-80
2023/02/27 10:57:31;;;;;;;21.23;10.23;;;;;;;4.60;95.86;100668.05;124630;1109;104276;-78
2023/02/27 11:00:09;;;;;;;22.23;10.10;;;;;;;4.61;95.64;100655.94;124259;1109;104251;-83
2023/02/27 11:02:51;;;;;;;25.33;12.43;;;;;;;4.61;95.29;100637.75;125084;1109;102577;-81
2023/02/27 11:05:28;;;;;;;24.10;12.33;;;;;;;4.60;95.69;100612.59;125200;1105;103167;-79
2023/02/27 11:08:20;;;;;;;25.90;12.00;;;;;;;4.64;95.20;100610.27;125257;1105;102540;-80
2023/02/27 11:10:59;;;;;;;25.90;13.30;;;;;;;4.72;94.89;100608.14;124403;1109;102212;-79
2023/02/27 11:13:37;;;;;;;25.90;12.47;;;;;;;4.78;95.58;100605.88;124689;1108;102563;-81
2023/02/27 11:16:22;;;;;;;25.63;13.70;;;;;;;4.83;95.58;100603.55;125115;1105;102594;-80
2023/02/27 11:22:18;;;;;;;23.47;11.70;;;;;;;4.81;95.16;100608.66;125175;1109;104341;-80
2023/02/27 11:25:13;;;;;;;22.20;11.40;;;;;;;4.78;95.11;100611.08;125059;1109;102359;-80
2023/02/27 11:27:50;;;;;;;22.30;10.90;;;;;;;4.78;94.97;100616.28;125167;1106;102253;-81
2023/02/27 11:30:27;;;;;;;26.67;11.57;;;;;;;4.84;94.86;100613.16;125219;1108;102189;-80
2023/02/27 11:33:01;;;;;;;22.13;11.17;;;;;;;4.90;95.38;100604.84;125116;1109;102721;-79
2023/02/27 11:35:37;;;;;;;23.57;11.17;;;;;;;4.93;95.74;100611.12;125109;1109;102705;-81
2023/02/27 11:38:44;;;;;;;22.77;11.13;;;;;;;4.94;95.32;100618.12;125239;1106;103690;-80
2023/02/27 11:41:30;;;;;;;22.03;9.53;;;;;;;4.99;95.35;100619.29;125229;1107;104185;-82
2023/02/27 11:44:06;;;;;;;23.60;10.70;;;;;;;5.00;95.37;100623.70;125131;1105;102425;-80
2023/02/27 11:46:40;;;;;;;20.33;10.23;;;;;;;5.03;95.37;100618.67;125096;1109;104251;-82
2023/02/27 11:49:21;;;;;;;;;;;;;;;4.98;95.21;100620.08;125187;1106;102904;-80
2023/02/27 11:52:03;;;;;;;20.17;8.63;;;;;;;4.97;95.50;100612.19;125095;1108;103344;-81
2023/02/27 11:54:58;;;;;;;18.70;9.23;;;;;;;4.94;95.03;100627.61;124976;1106;104265;-80
2023/02/27 11:57:36;;;;;;;21.37;9.07;;;;;;;4.91;94.78;100643.02;125120;1106;103050;-83
2023/02/27 12:00:23;;;;;;;24.40;10.20;;;;;;;4.93;94.83;100650.13;125130;1109;104207;-81
2023/02/27 12:03:07;;;;;;;21.40;9.47;;;;;;;4.95;95.38;100663.22;124971;1109;102478;-80